UACP

Petropavlosk South Airport

Airport
ICAO code
UACP
IATA Code
PPK
Summary
ICAO Region
APAC
ICAO Territory
Location

Petropavlosk,

Serving
Petropavlosk
Elevation
413 ft
Coordinates
54° 46' 29" N , 69° 11' 2" E
Metar
UACP 231230Z 02006MPS 9999 BKN040CB 09/04 Q1015 NOSIG RMK QFE749/0999

Description

Petropavl Airport (also given as Petropavlovsk South) is an airport in Kazakhstan located 11 km south of Petropavl (Petropavlovsk).

Runways

Designator Length Width Surface Rops
5/23 2496 39 ASP No/No

Airport map

Aerial View

SKYbrary Partners:

Safety knowledge contributed by: